Terminal Aerodrome Forecast
Issued by NWS

Home | Current Version | Previous Version | Text Only | Print | Product List | Glossary Off
Versions: 1 2 3 4 5 6 7 8 9 10 11 12 13

000
FTUS45 KGGW 211137
TAFSDY
TAF
KSDY 211137Z 2112/2212 18012KT P6SM FEW250
     FM220000 19012G22KT P6SM SCT170
     FM220100 18011KT P6SM BKN160
     FM220800 26008KT P6SM SCT070=

USA.gov is the U.S. government's official web portal to all federal, state and local government web resources and services.